Time,TemperatureF,DewpointF,PressureIn,WindDirection,WindDirectionDegrees,WindSpeedMPH,WindSpeedGustMPH,Humidity,HourlyPrecipIn,Conditions,Clouds,dailyrainin,SolarRadiationWatts/m^2,SoftwareType,DateUTC
2013-01-01 00:02:00,10.0,7.0,-100.00,East,96,1.0,2.0,87,0.00,,,0.00,0.000000,,2013-01-01 07:02:00,
2013-01-01 00:12:00,10.0,7.0,-100.00,East,96,1.0,2.0,87,0.00,,,0.00,0.000000,,2013-01-01 07:12:00,
2013-01-01 00:22:00,10.0,7.0,-100.00,East,96,1.0,2.0,87,0.00,,,0.00,0.000000,,2013-01-01 07:22:00,
2013-01-01 00:42:00,6.0,1.0,-100.00,WNW,287,2.0,2.0,80,-99.99,,,-99.99,0.000000,,2013-01-01 07:42:00,
2013-01-01 00:53:00,6.0,1.0,-100.00,WNW,287,2.0,2.0,80,-99.99,,,-99.99,0.000000,,2013-01-01 07:53:00,
2013-01-01 01:02:00,6.0,1.0,-100.00,WNW,287,2.0,2.0,80,-99.99,,,-99.99,0.000000,,2013-01-01 08:02:00,
2013-01-01 01:12:00,6.0,1.0,-100.00,WNW,287,2.0,2.0,80,-99.99,,,-99.99,0.000000,,2013-01-01 08:12:00,
2013-01-01 01:22:00,6.0,1.0,-100.00,WNW,287,2.0,2.0,80,-99.99,,,-99.99,0.000000,,2013-01-01 08:22:00,
2013-01-01 01:42:00,2.0,-3.0,-100.00,West,275,2.0,3.0,80,0.00,,,-99.99,0.000000,,2013-01-01 08:42:00,
2013-01-01 01:53:00,2.0,-3.0,-100.00,West,275,2.0,3.0,80,0.00,,,-99.99,0.000000,,2013-01-01 08:53:00,
2013-01-01 02:02:00,2.0,-3.0,-100.00,West,275,2.0,3.0,80,0.00,,,-99.99,0.000000,,2013-01-01 09:02:00,
2013-01-01 02:12:00,2.0,-3.0,-100.00,West,275,2.0,3.0,80,0.00,,,-99.99,0.000000,,2013-01-01 09:12:00,
2013-01-01 02:22:00,2.0,-3.0,-100.00,West,275,2.0,3.0,80,0.00,,,-99.99,0.000000,,2013-01-01 09:22:00,
2013-01-01 02:42:00,1.0,-4.0,-100.00,WNW,283,2.0,3.0,80,0.00,,,-99.99,0.000000,,2013-01-01 09:42:00,
2013-01-01 02:52:00,1.0,-4.0,-100.00,WNW,283,2.0,3.0,80,0.00,,,-99.99,0.000000,,2013-01-01 09:52:00,
2013-01-01 03:02:00,1.0,-4.0,-100.00,WNW,283,2.0,3.0,80,0.00,,,-99.99,0.000000,,2013-01-01 10:02:00,
2013-01-01 03:12:00,1.0,-4.0,-100.00,WNW,283,2.0,3.0,80,0.00,,,-99.99,0.000000,,2013-01-01 10:12:00,
2013-01-01 03:22:00,1.0,-4.0,-100.00,WNW,283,2.0,3.0,80,0.00,,,-99.99,0.000000,,2013-01-01 10:22:00,
2013-01-01 03:43:00,1.0,-3.0,-100.00,WNW,283,1.0,3.0,81,0.00,,,-99.99,0.000000,,2013-01-01 10:43:00,
2013-01-01 03:53:00,1.0,-3.0,-100.00,WNW,283,1.0,3.0,81,0.00,,,-99.99,0.000000,,2013-01-01 10:53:00,
2013-01-01 04:02:00,1.0,-3.0,-100.00,WNW,283,1.0,3.0,81,0.00,,,-99.99,0.000000,,2013-01-01 11:02:00,
2013-01-01 04:12:00,1.0,-3.0,-100.00,WNW,283,1.0,3.0,81,0.00,,,-99.99,0.000000,,2013-01-01 11:12:00,
2013-01-01 04:22:00,1.0,-3.0,-100.00,WNW,283,1.0,3.0,81,0.00,,,-99.99,0.000000,,2013-01-01 11:22:00,
2013-01-01 04:43:00,1.0,-3.0,-100.00,WNW,289,2.0,2.0,81,0.00,,,-99.99,0.000000,,2013-01-01 11:43:00,
2013-01-01 04:53:00,1.0,-3.0,-100.00,WNW,289,2.0,2.0,81,0.00,,,-99.99,0.000000,,2013-01-01 11:53:00,
2013-01-01 05:02:00,1.0,-3.0,-100.00,WNW,289,2.0,2.0,81,0.00,,,-99.99,0.000000,,2013-01-01 12:02:00,
2013-01-01 05:12:00,1.0,-3.0,-100.00,WNW,289,2.0,2.0,81,0.00,,,-99.99,0.000000,,2013-01-01 12:12:00,
2013-01-01 05:22:00,1.0,-3.0,-100.00,WNW,289,2.0,2.0,81,0.00,,,-99.99,0.000000,,2013-01-01 12:22:00,
2013-01-01 05:43:00,0.0,-5.0,-100.00,WNW,302,1.0,2.0,79,0.00,,,-99.99,0.000000,,2013-01-01 12:43:00,
2013-01-01 05:53:00,0.0,-5.0,-100.00,WNW,302,1.0,2.0,79,0.00,,,-99.99,0.000000,,2013-01-01 12:53:00,
2013-01-01 06:02:00,0.0,-5.0,-100.00,WNW,302,1.0,2.0,79,0.00,,,-99.99,0.000000,,2013-01-01 13:02:00,
2013-01-01 06:12:00,0.0,-5.0,-100.00,WNW,302,1.0,2.0,79,0.00,,,-99.99,0.000000,,2013-01-01 13:12:00,
2013-01-01 06:22:00,0.0,-5.0,-100.00,WNW,302,1.0,2.0,79,0.00,,,-99.99,0.000000,,2013-01-01 13:22:00,
2013-01-01 06:43:00,2.0,-3.0,-100.00,WNW,287,2.0,2.0,80,0.00,,,-99.99,0.000000,,2013-01-01 13:43:00,
2013-01-01 06:53:00,2.0,-3.0,-100.00,WNW,287,2.0,2.0,80,0.00,,,-99.99,0.000000,,2013-01-01 13:53:00,
2013-01-01 07:02:00,2.0,-3.0,-100.00,WNW,287,2.0,2.0,80,0.00,,,-99.99,0.000000,,2013-01-01 14:02:00,
2013-01-01 07:12:00,2.0,-3.0,-100.00,WNW,287,2.0,2.0,80,0.00,,,-99.99,0.000000,,2013-01-01 14:12:00,
2013-01-01 07:22:00,2.0,-3.0,-100.00,WNW,287,2.0,2.0,80,0.00,,,-99.99,0.000000,,2013-01-01 14:22:00,
2013-01-01 07:43:00,2.0,-3.0,-100.00,West,275,2.0,3.0,78,0.00,,,-99.99,0.000000,,2013-01-01 14:43:00,
2013-01-01 07:53:00,2.0,-3.0,-100.00,West,275,2.0,3.0,78,0.00,,,-99.99,0.000000,,2013-01-01 14:53:00,
2013-01-01 08:03:00,2.0,-3.0,-100.00,West,275,2.0,3.0,78,0.00,,,-99.99,0.000000,,2013-01-01 15:03:00,
2013-01-01 08:12:00,2.0,-3.0,-100.00,West,275,2.0,3.0,78,0.00,,,-99.99,0.000000,,2013-01-01 15:12:00,
2013-01-01 08:22:00,2.0,-3.0,-100.00,West,275,2.0,3.0,78,0.00,,,-99.99,0.000000,,2013-01-01 15:22:00,
2013-01-01 08:43:00,7.0,2.0,-100.00,West,279,1.0,2.0,79,0.00,,,-99.99,11.000000,,2013-01-01 15:43:00,
2013-01-01 08:53:00,7.0,2.0,-100.00,West,279,1.0,2.0,79,0.00,,,-99.99,11.000000,,2013-01-01 15:53:00,
2013-01-01 09:02:00,7.0,2.0,-100.00,West,279,1.0,2.0,79,0.00,,,-99.99,11.000000,,2013-01-01 16:02:00,
2013-01-01 09:12:00,7.0,2.0,-100.00,West,279,1.0,2.0,79,0.00,,,-99.99,11.000000,,2013-01-01 16:12:00,
2013-01-01 09:22:00,7.0,2.0,-100.00,West,279,1.0,2.0,79,0.00,,,-99.99,11.000000,,2013-01-01 16:22:00,
2013-01-01 09:43:00,12.0,4.0,-100.00,NNE,27,0.0,2.0,69,0.00,,,-99.99,25.000000,,2013-01-01 16:43:00,
2013-01-01 09:53:00,12.0,4.0,-100.00,NNE,27,0.0,2.0,69,0.00,,,-99.99,25.000000,,2013-01-01 16:53:00,
2013-01-01 10:02:00,12.0,4.0,-100.00,NNE,27,0.0,2.0,69,0.00,,,-99.99,25.000000,,2013-01-01 17:02:00,
2013-01-01 10:12:00,12.0,4.0,-100.00,NNE,27,0.0,2.0,69,0.00,,,-99.99,25.000000,,2013-01-01 17:12:00,
2013-01-01 10:22:00,12.0,4.0,-100.00,NNE,27,0.0,2.0,69,0.00,,,-99.99,25.000000,,2013-01-01 17:22:00,
2013-01-01 10:43:00,14.0,2.0,-100.00,ESE,110,2.0,3.0,58,0.00,,,-99.99,41.000000,,2013-01-01 17:43:00,
2013-01-01 10:53:00,14.0,2.0,-100.00,ESE,110,2.0,3.0,58,0.00,,,-99.99,41.000000,,2013-01-01 17:53:00,
2013-01-01 11:03:00,14.0,2.0,-100.00,ESE,110,2.0,3.0,58,0.00,,,-99.99,41.000000,,2013-01-01 18:03:00,
2013-01-01 11:12:00,14.0,2.0,-100.00,ESE,110,2.0,3.0,58,0.00,,,-99.99,41.000000,,2013-01-01 18:12:00,
2013-01-01 11:22:00,14.0,2.0,-100.00,ESE,110,2.0,3.0,58,0.00,,,-99.99,41.000000,,2013-01-01 18:22:00,
2013-01-01 11:43:00,24.0,3.0,-100.00,NNE,23,2.0,3.0,39,0.00,,,-99.99,85.000000,,2013-01-01 18:43:00,
2013-01-01 11:53:00,24.0,3.0,-100.00,NNE,23,2.0,3.0,39,0.00,,,-99.99,85.000000,,2013-01-01 18:53:00,
2013-01-01 12:02:00,24.0,3.0,-100.00,NNE,23,2.0,3.0,39,0.00,,,-99.99,85.000000,,2013-01-01 19:02:00,
2013-01-01 12:12:00,24.0,3.0,-100.00,NNE,23,2.0,3.0,39,0.00,,,-99.99,85.000000,,2013-01-01 19:12:00,
2013-01-01 12:22:00,24.0,3.0,-100.00,NNE,23,2.0,3.0,39,0.00,,,-99.99,85.000000,,2013-01-01 19:22:00,
2013-01-01 12:43:00,23.0,0.0,-100.00,SE,131,3.0,5.0,36,0.00,,,-99.99,130.000000,,2013-01-01 19:43:00,
2013-01-01 12:53:00,23.0,0.0,-100.00,SE,131,3.0,5.0,36,0.00,,,-99.99,130.000000,,2013-01-01 19:53:00,
2013-01-01 13:02:00,23.0,0.0,-100.00,SE,131,3.0,5.0,36,0.00,,,-99.99,130.000000,,2013-01-01 20:02:00,
2013-01-01 13:12:00,23.0,0.0,-100.00,SE,131,3.0,5.0,36,0.00,,,-99.99,130.000000,,2013-01-01 20:12:00,
2013-01-01 13:22:00,23.0,0.0,-100.00,SE,131,3.0,5.0,36,0.00,,,-99.99,130.000000,,2013-01-01 20:22:00,
2013-01-01 13:42:00,24.0,-2.0,-100.00,East,81,3.0,6.0,32,0.00,,,-99.99,130.000000,,2013-01-01 20:42:00,
2013-01-01 13:53:00,24.0,-2.0,-100.00,East,81,3.0,6.0,32,0.00,,,-99.99,130.000000,,2013-01-01 20:53:00,
2013-01-01 14:03:00,24.0,-2.0,-100.00,East,81,3.0,6.0,32,0.00,,,-99.99,130.000000,,2013-01-01 21:03:00,
2013-01-01 14:12:00,24.0,-2.0,-100.00,East,81,3.0,6.0,32,0.00,,,-99.99,130.000000,,2013-01-01 21:12:00,
2013-01-01 14:22:00,24.0,-2.0,-100.00,East,81,3.0,6.0,32,0.00,,,-99.99,130.000000,,2013-01-01 21:22:00,
2013-01-01 14:43:00,26.0,-3.0,-100.00,NNE,31,2.0,5.0,27,0.00,,,-99.99,118.000000,,2013-01-01 21:43:00,
2013-01-01 14:53:00,26.0,-3.0,-100.00,NNE,31,2.0,5.0,27,0.00,,,-99.99,118.000000,,2013-01-01 21:53:00,
2013-01-01 15:02:00,26.0,-3.0,-100.00,NNE,31,2.0,5.0,27,0.00,,,-99.99,118.000000,,2013-01-01 22:02:00,
2013-01-01 15:12:00,26.0,-3.0,-100.00,NNE,31,2.0,5.0,27,0.00,,,-99.99,118.000000,,2013-01-01 22:12:00,
2013-01-01 15:22:00,26.0,-3.0,-100.00,NNE,31,2.0,5.0,27,0.00,,,-99.99,118.000000,,2013-01-01 22:22:00,
2013-01-01 15:43:00,19.0,-6.0,-100.00,West,259,3.0,6.0,32,0.00,,,-99.99,65.000000,,2013-01-01 22:43:00,
2013-01-01 15:53:00,19.0,-6.0,-100.00,West,259,3.0,6.0,32,0.00,,,-99.99,65.000000,,2013-01-01 22:53:00,
2013-01-01 16:02:00,19.0,-6.0,-100.00,West,259,3.0,6.0,32,0.00,,,-99.99,65.000000,,2013-01-01 23:02:00,
2013-01-01 16:12:00,19.0,-6.0,-100.00,West,259,3.0,6.0,32,0.00,,,-99.99,65.000000,,2013-01-01 23:12:00,
2013-01-01 16:22:00,19.0,-6.0,-100.00,West,259,3.0,6.0,32,0.00,,,-99.99,65.000000,,2013-01-01 23:22:00,
2013-01-01 16:42:00,11.0,-6.0,-100.00,West,272,2.0,5.0,45,0.00,,,-99.99,11.000000,,2013-01-01 23:42:00,
2013-01-01 16:53:00,11.0,-6.0,-100.00,West,272,2.0,5.0,45,0.00,,,-99.99,11.000000,,2013-01-01 23:53:00,
2013-01-01 17:02:00,11.0,-6.0,-100.00,West,272,2.0,5.0,45,0.00,,,-99.99,11.000000,,2013-01-02 00:02:00,
2013-01-01 17:12:00,11.0,-6.0,-100.00,West,272,2.0,5.0,45,0.00,,,-99.99,11.000000,,2013-01-02 00:12:00,
2013-01-01 17:22:00,11.0,-6.0,-100.00,West,272,2.0,5.0,45,0.00,,,-99.99,11.000000,,2013-01-02 00:22:00,
2013-01-01 17:43:00,10.0,-8.0,-100.00,ENE,74,1.0,7.0,43,0.00,,,-99.99,2.000000,,2013-01-02 00:43:00,
2013-01-01 17:53:00,10.0,-8.0,-100.00,ENE,74,1.0,7.0,43,0.00,,,-99.99,2.000000,,2013-01-02 00:53:00,
2013-01-01 18:02:00,10.0,-8.0,-100.00,ENE,74,1.0,7.0,43,0.00,,,-99.99,2.000000,,2013-01-02 01:02:00,
2013-01-01 18:12:00,10.0,-8.0,-100.00,ENE,74,1.0,7.0,43,0.00,,,-99.99,2.000000,,2013-01-02 01:12:00,
2013-01-01 18:22:00,10.0,-8.0,-100.00,ENE,74,1.0,7.0,43,0.00,,,-99.99,2.000000,,2013-01-02 01:22:00,
2013-01-01 18:42:00,5.0,-8.0,-100.00,SW,222,2.0,5.0,55,0.00,,,-99.99,0.000000,,2013-01-02 01:42:00,
2013-01-01 18:52:00,5.0,-8.0,-100.00,SW,222,2.0,5.0,55,0.00,,,-99.99,0.000000,,2013-01-02 01:52:00,
2013-01-01 19:02:00,5.0,-8.0,-100.00,SW,222,2.0,5.0,55,0.00,,,-99.99,0.000000,,2013-01-02 02:02:00,
2013-01-01 19:12:00,5.0,-8.0,-100.00,SW,222,2.0,5.0,55,0.00,,,-99.99,0.000000,,2013-01-02 02:12:00,
2013-01-01 19:22:00,5.0,-8.0,-100.00,SW,222,2.0,5.0,55,0.00,,,-99.99,0.000000,,2013-01-02 02:22:00,
2013-01-01 19:43:00,3.0,-7.0,-100.00,WSW,248,2.0,4.0,61,0.00,,,-99.99,0.000000,,2013-01-02 02:43:00,
2013-01-01 19:53:00,3.0,-7.0,-100.00,WSW,248,2.0,4.0,61,0.00,,,-99.99,0.000000,,2013-01-02 02:53:00,
2013-01-01 20:02:00,3.0,-7.0,-100.00,WSW,248,2.0,4.0,61,0.00,,,-99.99,0.000000,,2013-01-02 03:02:00,
2013-01-01 20:12:00,3.0,-7.0,-100.00,WSW,248,2.0,4.0,61,0.00,,,-99.99,0.000000,,2013-01-02 03:12:00,
2013-01-01 20:22:00,3.0,-7.0,-100.00,WSW,248,2.0,4.0,61,0.00,,,-99.99,0.000000,,2013-01-02 03:22:00,
2013-01-01 20:42:00,2.0,-8.0,-100.00,WNW,293,2.0,4.0,63,0.00,,,-99.99,0.000000,,2013-01-02 03:42:00,
2013-01-01 20:53:00,2.0,-8.0,-100.00,WNW,293,2.0,4.0,63,0.00,,,-99.99,0.000000,,2013-01-02 03:53:00,
2013-01-01 21:02:00,2.0,-8.0,-100.00,WNW,293,2.0,4.0,63,0.00,,,-99.99,0.000000,,2013-01-02 04:02:00,
2013-01-01 21:12:00,2.0,-8.0,-100.00,WNW,293,2.0,4.0,63,0.00,,,-99.99,0.000000,,2013-01-02 04:12:00,
2013-01-01 21:22:00,2.0,-8.0,-100.00,WNW,293,2.0,4.0,63,0.00,,,-99.99,0.000000,,2013-01-02 04:22:00,
2013-01-01 21:42:00,3.0,-9.0,-100.00,WNW,302,2.0,4.0,57,0.00,,,-99.99,0.000000,,2013-01-02 04:42:00,
2013-01-01 21:52:00,3.0,-9.0,-100.00,WNW,302,2.0,4.0,57,0.00,,,-99.99,0.000000,,2013-01-02 04:52:00,
2013-01-01 22:03:00,3.0,-9.0,-100.00,WNW,302,2.0,4.0,57,0.00,,,-99.99,0.000000,,2013-01-02 05:03:00,
2013-01-01 22:12:00,3.0,-9.0,-100.00,WNW,302,2.0,4.0,57,0.00,,,-99.99,0.000000,,2013-01-02 05:12:00,
2013-01-01 22:22:00,3.0,-9.0,-100.00,WNW,302,2.0,4.0,57,0.00,,,-99.99,0.000000,,2013-01-02 05:22:00,
2013-01-01 22:43:00,3.0,-7.0,-100.00,WNW,297,3.0,4.0,61,0.00,,,-99.99,0.000000,,2013-01-02 05:43:00,
2013-01-01 22:53:00,3.0,-7.0,-100.00,WNW,297,3.0,4.0,61,0.00,,,-99.99,0.000000,,2013-01-02 05:53:00,
2013-01-01 23:02:00,3.0,-7.0,-100.00,WNW,297,3.0,4.0,61,0.00,,,-99.99,0.000000,,2013-01-02 06:02:00,
2013-01-01 23:12:00,3.0,-7.0,-100.00,WNW,297,3.0,4.0,61,0.00,,,-99.99,0.000000,,2013-01-02 06:12:00,
2013-01-01 23:22:00,3.0,-7.0,-100.00,WNW,297,3.0,4.0,61,0.00,,,-99.99,0.000000,,2013-01-02 06:22:00,
2013-01-01 23:42:00,5.0,-4.0,-100.00,WNW,282,2.0,3.0,64,0.00,,,-99.99,0.000000,,2013-01-02 06:42:00,
2013-01-01 23:53:00,5.0,-4.0,-100.00,WNW,282,2.0,3.0,64,0.00,,,-99.99,0.000000,,2013-01-02 06:53:00,